sensor_id;sensor_type;location;lat;lon;timestamp;pressure;altitude;pressure_sealevel;temperature;humidity
60852;BME280;48553;50.766;2.900;2023-02-15T00:02:54;102094.03;;;7.39;78.21
60852;BME280;48553;50.766;2.900;2023-02-15T00:05:56;102096.47;;;7.40;77.91
60852;BME280;48553;50.766;2.900;2023-02-15T00:08:58;102086.38;;;7.36;77.95
60852;BME280;48553;50.766;2.900;2023-02-15T00:11:59;102078.78;;;7.32;77.95
60852;BME280;48553;50.766;2.900;2023-02-15T00:14:59;102078.53;;;7.29;77.99
60852;BME280;48553;50.766;2.900;2023-02-15T00:18:00;102084.00;;;7.29;78.21
60852;BME280;48553;50.766;2.900;2023-02-15T00:21:09;102080.72;;;7.27;77.97
60852;BME280;48553;50.766;2.900;2023-02-15T00:24:11;102070.91;;;7.26;77.97
60852;BME280;48553;50.766;2.900;2023-02-15T00:27:12;102072.28;;;7.23;78.24
60852;BME280;48553;50.766;2.900;2023-02-15T00:30:12;102061.13;;;7.20;78.31
60852;BME280;48553;50.766;2.900;2023-02-15T00:33:13;102057.34;;;7.16;78.62
60852;BME280;48553;50.766;2.900;2023-02-15T00:36:13;102054.63;;;7.16;78.55
60852;BME280;48553;50.766;2.900;2023-02-15T00:39:14;102065.78;;;7.14;78.77
60852;BME280;48553;50.766;2.900;2023-02-15T00:42:15;102065.25;;;7.12;78.51
60852;BME280;48553;50.766;2.900;2023-02-15T00:45:15;102064.44;;;7.11;78.88
60852;BME280;48553;50.766;2.900;2023-02-15T00:48:16;102057.06;;;7.12;78.67
60852;BME280;48553;50.766;2.900;2023-02-15T00:51:17;102049.47;;;7.09;79.04
60852;BME280;48553;50.766;2.900;2023-02-15T00:54:18;102050.31;;;7.04;78.91
60852;BME280;48553;50.766;2.900;2023-02-15T00:57:18;102038.88;;;7.02;79.19
60852;BME280;48553;50.766;2.900;2023-02-15T01:00:19;102052.50;;;7.02;79.46
60852;BME280;48553;50.766;2.900;2023-02-15T01:03:20;102039.66;;;7.03;79.33
60852;BME280;48553;50.766;2.900;2023-02-15T01:06:21;102040.47;;;7.03;79.24
60852;BME280;48553;50.766;2.900;2023-02-15T01:09:21;102036.41;;;7.01;78.88
60852;BME280;48553;50.766;2.900;2023-02-15T01:12:22;102035.88;;;6.99;79.19
60852;BME280;48553;50.766;2.900;2023-02-15T01:15:23;102036.72;;;6.94;79.09
60852;BME280;48553;50.766;2.900;2023-02-15T01:18:24;102029.06;;;6.96;79.14
60852;BME280;48553;50.766;2.900;2023-02-15T01:21:25;102031.25;;;6.94;79.08
60852;BME280;48553;50.766;2.900;2023-02-15T01:24:26;102026.38;;;6.91;79.15
60852;BME280;48553;50.766;2.900;2023-02-15T01:27:26;102019.81;;;6.92;79.30
60852;BME280;48553;50.766;2.900;2023-02-15T01:30:31;102020.38;;;6.89;78.99
60852;BME280;48553;50.766;2.900;2023-02-15T01:33:32;102008.94;;;6.87;78.75
60852;BME280;48553;50.766;2.900;2023-02-15T01:36:33;102007.59;;;6.84;78.69
60852;BME280;48553;50.766;2.900;2023-02-15T01:39:34;102017.16;;;6.82;78.72
60852;BME280;48553;50.766;2.900;2023-02-15T01:42:34;102010.91;;;6.81;79.04
60852;BME280;48553;50.766;2.900;2023-02-15T01:45:35;102008.72;;;6.78;78.99
60852;BME280;48553;50.766;2.900;2023-02-15T01:48:42;101999.72;;;6.78;78.97
60852;BME280;48553;50.766;2.900;2023-02-15T01:51:45;101999.72;;;6.78;79.03
60852;BME280;48553;50.766;2.900;2023-02-15T01:54:47;102009.53;;;6.74;78.85
60852;BME280;48553;50.766;2.900;2023-02-15T01:57:47;102011.72;;;6.72;79.21
60852;BME280;48553;50.766;2.900;2023-02-15T02:00:49;102011.72;;;6.72;79.24
60852;BME280;48553;50.766;2.900;2023-02-15T02:06:59;102008.22;;;6.66;79.32
60852;BME280;48553;50.766;2.900;2023-02-15T02:10:01;101998.13;;;6.66;79.53
60852;BME280;48553;50.766;2.900;2023-02-15T02:13:05;101993.50;;;6.67;79.38
60852;BME280;48553;50.766;2.900;2023-02-15T02:33:20;101969.31;;;6.55;79.14
60852;BME280;48553;50.766;2.900;2023-02-15T02:36:51;101974.22;;;6.53;79.57
60852;BME280;48553;50.766;2.900;2023-02-15T02:40:10;101969.31;;;6.50;79.49
60852;BME280;48553;50.766;2.900;2023-02-15T02:43:33;101969.88;;;6.47;79.57
60852;BME280;48553;50.766;2.900;2023-02-15T02:49:40;101967.16;;;6.47;79.48
60852;BME280;48553;50.766;2.900;2023-02-15T02:52:46;101959.28;;;6.45;79.28
60852;BME280;48553;50.766;2.900;2023-02-15T02:55:54;101955.19;;;6.43;79.61
60852;BME280;48553;50.766;2.900;2023-02-15T03:05:21;101945.69;;;6.35;79.73
60852;BME280;48553;50.766;2.900;2023-02-15T03:08:28;101942.69;;;6.37;79.87
60852;BME280;48553;50.766;2.900;2023-02-15T03:11:32;101945.69;;;6.35;79.70
60852;BME280;48553;50.766;2.900;2023-02-15T03:14:33;101939.69;;;6.33;79.40
60852;BME280;48553;50.766;2.900;2023-02-15T03:17:39;101938.88;;;6.33;79.82
60852;BME280;48553;50.766;2.900;2023-02-15T03:20:41;101926.38;;;6.32;79.65
60852;BME280;48553;50.766;2.900;2023-02-15T03:23:42;101930.75;;;6.27;79.75
60852;BME280;48553;50.766;2.900;2023-02-15T03:26:45;101923.91;;;6.30;79.77
60852;BME280;48553;50.766;2.900;2023-02-15T03:29:51;101924.75;;;6.25;79.79
60852;BME280;48553;50.766;2.900;2023-02-15T03:32:52;101922.03;;;6.25;79.62
60852;BME280;48553;50.766;2.900;2023-02-15T03:36:25;101926.66;;;6.25;79.62
60852;BME280;48553;50.766;2.900;2023-02-15T03:39:51;101929.38;;;6.20;79.53
60852;BME280;48553;50.766;2.900;2023-02-15T03:43:01;101922.59;;;6.17;79.93
60852;BME280;48553;50.766;2.900;2023-02-15T03:46:54;101923.13;;;6.19;79.79
60852;BME280;48553;50.766;2.900;2023-02-15T03:49:36;101913.38;;;6.13;79.78
60852;BME280;48553;50.766;2.900;2023-02-15T03:52:39;101911.47;;;6.14;79.89
60852;BME280;48553;50.766;2.900;2023-02-15T03:55:40;101914.19;;;6.14;79.77
60852;BME280;48553;50.766;2.900;2023-02-15T03:58:40;101901.41;;;6.09;79.86
60852;BME280;48553;50.766;2.900;2023-02-15T04:02:10;101903.59;;;6.07;79.89
60852;BME280;48553;50.766;2.900;2023-02-15T04:05:14;101904.13;;;6.04;79.89
60852;BME280;48553;50.766;2.900;2023-02-15T04:08:14;101899.75;;;6.08;79.83
60852;BME280;48553;50.766;2.900;2023-02-15T04:11:15;101899.50;;;6.04;79.74
60852;BME280;48553;50.766;2.900;2023-02-15T04:14:15;101907.41;;;6.01;79.93
60852;BME280;48553;50.766;2.900;2023-02-15T04:17:36;101905.78;;;6.00;79.71
60852;BME280;48553;50.766;2.900;2023-02-15T04:20:37;101900.06;;;5.96;79.98
60852;BME280;48553;50.766;2.900;2023-02-15T04:23:56;101890.84;;;5.97;79.93
60852;BME280;48553;50.766;2.900;2023-02-15T04:27:15;101890.28;;;5.95;79.95
60852;BME280;48553;50.766;2.900;2023-02-15T04:30:18;101893.25;;;5.94;79.66
60852;BME280;48553;50.766;2.900;2023-02-15T04:33:19;101883.75;;;5.91;79.72
60852;BME280;48553;50.766;2.900;2023-02-15T04:36:20;101891.34;;;5.89;79.58
60852;BME280;48553;50.766;2.900;2023-02-15T04:39:20;101894.34;;;5.88;79.63
60852;BME280;48553;50.766;2.900;2023-02-15T04:42:20;101894.34;;;5.88;79.33
60852;BME280;48553;50.766;2.900;2023-02-15T04:45:21;101894.63;;;5.86;79.46
60852;BME280;48553;50.766;2.900;2023-02-15T04:48:21;101894.09;;;5.79;79.91
60852;BME280;48553;50.766;2.900;2023-02-15T04:51:22;101900.38;;;5.79;79.88
60852;BME280;48553;50.766;2.900;2023-02-15T04:54:22;101898.44;;;5.80;79.34
60852;BME280;48553;50.766;2.900;2023-02-15T04:57:22;101887.28;;;5.76;79.44
60852;BME280;48553;50.766;2.900;2023-02-15T05:00:23;101889.75;;;5.73;79.59
60852;BME280;48553;50.766;2.900;2023-02-15T05:03:24;101887.03;;;5.73;79.43
60852;BME280;48553;50.766;2.900;2023-02-15T05:06:25;101878.88;;;5.73;79.43
60852;BME280;48553;50.766;2.900;2023-02-15T05:09:25;101882.69;;;5.72;79.35
60852;BME280;48553;50.766;2.900;2023-02-15T05:12:25;101878.59;;;5.69;79.38
60852;BME280;48553;50.766;2.900;2023-02-15T05:15:26;101873.72;;;5.66;79.22
60852;BME280;48553;50.766;2.900;2023-02-15T05:18:26;101873.19;;;5.64;79.29
60852;BME280;48553;50.766;2.900;2023-02-15T05:21:27;101869.66;;;5.63;79.35
60852;BME280;48553;50.766;2.900;2023-02-15T05:24:27;101866.94;;;5.63;79.35
60852;BME280;48553;50.766;2.900;2023-02-15T05:27:46;101863.38;;;5.63;79.28
60852;BME280;48553;50.766;2.900;2023-02-15T05:31:08;101867.47;;;5.60;79.09
60852;BME280;48553;50.766;2.900;2023-02-15T05:34:09;101869.94;;;5.57;79.20
60852;BME280;48553;50.766;2.900;2023-02-15T05:37:10;101856.88;;;5.54;79.39
60852;BME280;48553;50.766;2.900;2023-02-15T05:40:11;101867.75;;;5.54;79.29
60852;BME280;48553;50.766;2.900;2023-02-15T05:43:11;101867.19;;;5.52;79.42
60852;BME280;48553;50.766;2.900;2023-02-15T05:46:12;101857.44;;;5.51;79.38
60852;BME280;48553;50.766;2.900;2023-02-15T05:49:12;101850.91;;;5.47;79.56
60852;BME280;48553;50.766;2.900;2023-02-15T05:52:13;101850.91;;;5.47;79.35
60852;BME280;48553;50.766;2.900;2023-02-15T05:55:13;101851.47;;;5.43;79.63
60852;BME280;48553;50.766;2.900;2023-02-15T05:58:13;101853.38;;;5.43;79.37
60852;BME280;48553;50.766;2.900;2023-02-15T06:01:16;101843.56;;;5.42;79.49
60852;BME280;48553;50.766;2.900;2023-02-15T06:04:17;101846.03;;;5.43;79.28
60852;BME280;48553;50.766;2.900;2023-02-15T06:07:18;101846.84;;;5.39;79.60
60852;BME280;48553;50.766;2.900;2023-02-15T06:10:18;101842.78;;;5.36;79.45
60852;BME280;48553;50.766;2.900;2023-02-15T06:13:18;101840.06;;;5.36;79.64
60852;BME280;48553;50.766;2.900;2023-02-15T06:16:19;101843.28;;;5.33;79.45
60852;BME280;48553;50.766;2.900;2023-02-15T06:19:19;101855.53;;;5.31;79.54
60852;BME280;48553;50.766;2.900;2023-02-15T06:22:21;101850.91;;;5.31;79.63
60852;BME280;48553;50.766;2.900;2023-02-15T06:25:21;101859.91;;;5.32;79.51
60852;BME280;48553;50.766;2.900;2023-02-15T06:28:22;101870.78;;;5.32;79.56
60852;BME280;48553;50.766;2.900;2023-02-15T06:31:22;101872.94;;;5.30;79.17
60852;BME280;48553;50.766;2.900;2023-02-15T06:34:23;101861.25;;;5.29;79.59
60852;BME280;48553;50.766;2.900;2023-02-15T06:37:23;101859.06;;;5.26;79.42
60852;BME280;48553;50.766;2.900;2023-02-15T06:40:23;101870.75;;;5.27;79.55
60852;BME280;48553;50.766;2.900;2023-02-15T06:43:24;101871.03;;;5.20;79.72
60852;BME280;48553;50.766;2.900;2023-02-15T06:46:24;101874.03;;;5.18;79.60
60852;BME280;48553;50.766;2.900;2023-02-15T06:49:25;101871.56;;;5.22;79.50
60852;BME280;48553;50.766;2.900;2023-02-15T06:52:26;101871.84;;;5.20;79.57
60852;BME280;48553;50.766;2.900;2023-02-15T06:55:26;101873.47;;;5.21;79.56
60852;BME280;48553;50.766;2.900;2023-02-15T06:58:26;101872.66;;;5.21;79.60
60852;BME280;48553;50.766;2.900;2023-02-15T07:01:27;101869.41;;;5.19;79.35
60852;BME280;48553;50.766;2.900;2023-02-15T07:04:27;101861.25;;;5.14;79.69
60852;BME280;48553;50.766;2.900;2023-02-15T07:07:29;101846.03;;;5.13;79.78
60852;BME280;48553;50.766;2.900;2023-02-15T07:10:30;101848.22;;;5.16;79.75
60852;BME280;48553;50.766;2.900;2023-02-15T07:13:30;101855.00;;;5.13;79.69
60852;BME280;48553;50.766;2.900;2023-02-15T07:16:31;101860.16;;;5.15;79.67
60852;BME280;48553;50.766;2.900;2023-02-15T07:19:31;101854.72;;;5.15;79.55
60852;BME280;48553;50.766;2.900;2023-02-15T07:22:32;101852.00;;;5.15;79.59
60852;BME280;48553;50.766;2.900;2023-02-15T07:25:34;101859.91;;;5.16;79.52
60852;BME280;48553;50.766;2.900;2023-02-15T07:28:35;101865.88;;;5.18;79.57
60852;BME280;48553;50.766;2.900;2023-02-15T07:31:35;101877.00;;;5.22;79.79
60852;BME280;48553;50.766;2.900;2023-02-15T07:34:36;101874.31;;;5.27;79.50
60852;BME280;48553;50.766;2.900;2023-02-15T07:37:36;101880.28;;;5.29;79.53
60852;BME280;48553;50.766;2.900;2023-02-15T07:40:37;101879.47;;;5.34;79.49
60852;BME280;48553;50.766;2.900;2023-02-15T07:43:39;101866.13;;;5.42;79.23
60852;BME280;48553;50.766;2.900;2023-02-15T07:46:41;101879.72;;;5.42;79.36
60852;BME280;48553;50.766;2.900;2023-02-15T07:49:41;101870.22;;;5.50;79.16
60852;BME280;48553;50.766;2.900;2023-02-15T07:52:42;101877.00;;;5.58;79.17
60852;BME280;48553;50.766;2.900;2023-02-15T07:55:42;101873.47;;;5.57;79.40
60852;BME280;48553;50.766;2.900;2023-02-15T07:58:42;101890.88;;;5.61;79.17
60852;BME280;48553;50.766;2.900;2023-02-15T08:01:52;101888.97;;;5.57;79.37
60852;BME280;48553;50.766;2.900;2023-02-15T08:04:54;101885.16;;;5.58;79.77
60852;BME280;48553;50.766;2.900;2023-02-15T08:07:54;101888.44;;;5.55;79.72
60852;BME280;48553;50.766;2.900;2023-02-15T08:10:59;101882.69;;;5.56;79.71
60852;BME280;48553;50.766;2.900;2023-02-15T08:14:21;101886.25;;;5.57;80.00
60852;BME280;48553;50.766;2.900;2023-02-15T08:17:25;101886.50;;;5.55;80.19
60852;BME280;48553;50.766;2.900;2023-02-15T08:20:25;101885.44;;;5.61;80.17
60852;BME280;48553;50.766;2.900;2023-02-15T08:23:26;101888.69;;;5.63;80.14
60852;BME280;48553;50.766;2.900;2023-02-15T08:26:27;101882.69;;;5.72;79.85
60852;BME280;48553;50.766;2.900;2023-02-15T08:29:28;101885.09;;;5.83;79.34
60852;BME280;48553;50.766;2.900;2023-02-15T08:32:29;101885.66;;;5.96;79.18
60852;BME280;48553;50.766;2.900;2023-02-15T08:35:30;101879.38;;;6.00;79.20
60852;BME280;48553;50.766;2.900;2023-02-15T08:38:30;101886.13;;;6.18;78.47
60852;BME280;48553;50.766;2.900;2023-02-15T08:41:33;101883.63;;;6.32;78.44
60852;BME280;48553;50.766;2.900;2023-02-15T08:44:34;101865.88;;;6.45;77.72
60852;BME280;48553;50.766;2.900;2023-02-15T08:47:35;101869.63;;;6.54;77.85
60852;BME280;48553;50.766;2.900;2023-02-15T08:50:35;101868.81;;;6.59;77.68
60852;BME280;48553;50.766;2.900;2023-02-15T08:53:39;101869.56;;;6.64;77.88
60852;BME280;48553;50.766;2.900;2023-02-15T08:56:42;101864.09;;;6.69;78.16
60852;BME280;48553;50.766;2.900;2023-02-15T08:59:43;101864.09;;;6.69;78.08
60852;BME280;48553;50.766;2.900;2023-02-15T09:02:43;101867.31;;;6.77;77.94
60852;BME280;48553;50.766;2.900;2023-02-15T09:05:43;101875.69;;;6.85;77.88
60852;BME280;48553;50.766;2.900;2023-02-15T09:08:44;101860.09;;;6.96;77.62
60852;BME280;48553;50.766;2.900;2023-02-15T09:11:46;101863.78;;;7.10;77.15
60852;BME280;48553;50.766;2.900;2023-02-15T09:14:48;101865.88;;;7.24;76.97
60852;BME280;48553;50.766;2.900;2023-02-15T09:17:49;101872.13;;;7.24;76.91
60852;BME280;48553;50.766;2.900;2023-02-15T09:20:49;101860.56;;;7.38;76.72
60852;BME280;48553;50.766;2.900;2023-02-15T09:23:51;101861.56;;;7.52;76.33
60852;BME280;48553;50.766;2.900;2023-02-15T09:26:52;101857.97;;;7.57;76.49
60852;BME280;48553;50.766;2.900;2023-02-15T09:29:52;101850.78;;;7.66;76.24
60852;BME280;48553;50.766;2.900;2023-02-15T09:32:53;101848.25;;;7.69;76.32
60852;BME280;48553;50.766;2.900;2023-02-15T09:35:53;101844.84;;;7.83;76.29
60852;BME280;48553;50.766;2.900;2023-02-15T09:38:57;101840.16;;;7.88;76.33
60852;BME280;48553;50.766;2.900;2023-02-15T09:45:53;101854.44;;;8.04;76.00
60852;BME280;48553;50.766;2.900;2023-02-15T09:56:06;101869.81;;;8.43;75.40
60852;BME280;48553;50.766;2.900;2023-02-15T09:59:19;101864.53;;;8.52;75.21
60852;BME280;48553;50.766;2.900;2023-02-15T10:12:47;101870.13;;;9.17;74.16
60852;BME280;48553;50.766;2.900;2023-02-15T10:19:05;101860.56;;;9.48;73.26
60852;BME280;48553;50.766;2.900;2023-02-15T10:28:46;101852.22;;;9.99;73.69
60852;BME280;48553;50.766;2.900;2023-02-15T10:31:59;101848.75;;;10.08;72.95
60852;BME280;48553;50.766;2.900;2023-02-15T10:35:15;101845.47;;;10.19;72.73
60852;BME280;48553;50.766;2.900;2023-02-15T10:39:02;101842.66;;;10.24;73.52
60852;BME280;48553;50.766;2.900;2023-02-15T10:55:38;101846.34;;;10.70;72.52
60852;BME280;48553;50.766;2.900;2023-02-15T11:08:23;101839.50;;;11.04;72.71
60852;BME280;48553;50.766;2.900;2023-02-15T11:11:29;101837.38;;;11.23;72.28
60852;BME280;48553;50.766;2.900;2023-02-15T11:14:38;101836.47;;;11.37;72.51
60852;BME280;48553;50.766;2.900;2023-02-15T11:17:46;101831.94;;;11.32;72.94
60852;BME280;48553;50.766;2.900;2023-02-15T11:21:27;101840.38;;;11.36;72.42
60852;BME280;48553;50.766;2.900;2023-02-15T11:24:32;101837.16;;;11.42;73.14
60852;BME280;48553;50.766;2.900;2023-02-15T11:27:34;101838.91;;;11.38;73.64
60852;BME280;48553;50.766;2.900;2023-02-15T11:30:45;101841.31;;;11.40;73.60
60852;BME280;48553;50.766;2.900;2023-02-15T11:34:01;101845.00;;;11.35;74.10
60852;BME280;48553;50.766;2.900;2023-02-15T11:37:17;101837.88;;;11.25;74.17
60852;BME280;48553;50.766;2.900;2023-02-15T11:40:27;101832.88;;;11.27;74.12
60852;BME280;48553;50.766;2.900;2023-02-15T11:43:37;101835.38;;;11.38;73.63
60852;BME280;48553;50.766;2.900;2023-02-15T11:46:39;101840.06;;;11.46;72.99
60852;BME280;48553;50.766;2.900;2023-02-15T11:49:41;101846.28;;;11.60;73.00
60852;BME280;48553;50.766;2.900;2023-02-15T11:52:41;101841.19;;;11.76;72.79
60852;BME280;48553;50.766;2.900;2023-02-15T11:55:44;101851.63;;;11.88;72.80
60852;BME280;48553;50.766;2.900;2023-02-15T11:59:00;101842.44;;;12.01;72.89
60852;BME280;48553;50.766;2.900;2023-02-15T12:02:16;101831.47;;;12.10;72.98
60852;BME280;48553;50.766;2.900;2023-02-15T12:05:19;101826.97;;;12.23;72.85
60852;BME280;48553;50.766;2.900;2023-02-15T12:08:22;101828.31;;;12.34;72.66
60852;BME280;48553;50.766;2.900;2023-02-15T12:11:33;101836.06;;;12.41;72.54
60852;BME280;48553;50.766;2.900;2023-02-15T12:14:58;101823.47;;;12.48;72.80
60852;BME280;48553;50.766;2.900;2023-02-15T12:17:58;101826.53;;;12.64;72.49
60852;BME280;48553;50.766;2.900;2023-02-15T12:21:01;101823.97;;;12.77;72.40
60852;BME280;48553;50.766;2.900;2023-02-15T12:24:26;101816.34;;;12.82;72.60
60852;BME280;48553;50.766;2.900;2023-02-15T12:27:33;101816.66;;;12.98;71.82
60852;BME280;48553;50.766;2.900;2023-02-15T12:30:35;101814.22;;;13.05;71.97
60852;BME280;48553;50.766;2.900;2023-02-15T12:33:41;101822.16;;;12.98;72.59
60852;BME280;48553;50.766;2.900;2023-02-15T12:36:48;101821.84;;;13.08;72.10
60852;BME280;48553;50.766;2.900;2023-02-15T12:39:55;101820.34;;;13.20;71.95
60852;BME280;48553;50.766;2.900;2023-02-15T12:42:56;101817.91;;;13.35;71.27
60852;BME280;48553;50.766;2.900;2023-02-15T12:49:19;101818.22;;;13.25;71.48
60852;BME280;48553;50.766;2.900;2023-02-15T12:55:25;101811.44;;;13.31;71.32
60852;BME280;48553;50.766;2.900;2023-02-15T12:58:29;101811.13;;;13.24;71.80
60852;BME280;48553;50.766;2.900;2023-02-15T13:01:32;101810.47;;;13.19;71.94
60852;BME280;48553;50.766;2.900;2023-02-15T13:04:32;101805.94;;;13.23;71.42
60852;BME280;48553;50.766;2.900;2023-02-15T13:07:33;101805.59;;;13.24;71.14
60852;BME280;48553;50.766;2.900;2023-02-15T13:10:37;101785.66;;;13.27;71.21
60852;BME280;48553;50.766;2.900;2023-02-15T13:13:55;101796.69;;;13.27;71.38
60852;BME280;48553;50.766;2.900;2023-02-15T13:17:00;101792.63;;;13.42;70.39
60852;BME280;48553;50.766;2.900;2023-02-15T13:20:04;101791.44;;;13.52;69.92
60852;BME280;48553;50.766;2.900;2023-02-15T13:23:27;101788.03;;;13.55;70.13
60852;BME280;48553;50.766;2.900;2023-02-15T13:26:31;101781.72;;;13.54;70.22
60852;BME280;48553;50.766;2.900;2023-02-15T13:29:36;101780.56;;;13.55;69.87
60852;BME280;48553;50.766;2.900;2023-02-15T13:32:39;101779.75;;;13.55;70.29
60852;BME280;48553;50.766;2.900;2023-02-15T13:36:08;101776.41;;;13.49;70.42
60852;BME280;48553;50.766;2.900;2023-02-15T13:39:19;101779.75;;;13.55;70.39
60852;BME280;48553;50.766;2.900;2023-02-15T13:42:28;101772.16;;;13.52;70.33
60852;BME280;48553;50.766;2.900;2023-02-15T13:45:40;101771.88;;;13.45;70.70
60852;BME280;48553;50.766;2.900;2023-02-15T13:49:01;101775.63;;;13.40;70.93
60852;BME280;48553;50.766;2.900;2023-02-15T13:52:22;101768.34;;;13.35;70.80
60852;BME280;48553;50.766;2.900;2023-02-15T14:23:03;101742.06;;;12.91;71.21
60852;BME280;48553;50.766;2.900;2023-02-15T14:29:43;101746.59;;;12.78;71.67
60852;BME280;48553;50.766;2.900;2023-02-15T14:32:50;101755.34;;;12.71;72.21
60852;BME280;48553;50.766;2.900;2023-02-15T14:35:53;101756.81;;;12.69;72.35
60852;BME280;48553;50.766;2.900;2023-02-15T14:39:29;101750.00;;;12.66;72.03
60852;BME280;48553;50.766;2.900;2023-02-15T14:43:07;101739.50;;;12.60;72.93
60852;BME280;48553;50.766;2.900;2023-02-15T14:46:16;101743.22;;;12.55;72.65
60852;BME280;48553;50.766;2.900;2023-02-15T14:49:27;101733.19;;;12.50;72.97
60852;BME280;48553;50.766;2.900;2023-02-15T14:52:28;101729.16;;;12.48;72.47
60852;BME280;48553;50.766;2.900;2023-02-15T14:55:36;101719.63;;;12.45;72.94
60852;BME280;48553;50.766;2.900;2023-02-15T14:58:37;101721.91;;;12.43;72.99
60852;BME280;48553;50.766;2.900;2023-02-15T15:01:39;101714.31;;;12.40;73.56
60852;BME280;48553;50.766;2.900;2023-02-15T15:04:41;101715.75;;;12.38;73.87
60852;BME280;48553;50.766;2.900;2023-02-15T15:07:52;101708.63;;;12.37;73.61
60852;BME280;48553;50.766;2.900;2023-02-15T15:10:54;101703.78;;;12.33;73.77
60852;BME280;48553;50.766;2.900;2023-02-15T15:13:57;101699.09;;;12.34;73.55
60852;BME280;48553;50.766;2.900;2023-02-15T15:17:10;101710.41;;;12.32;73.52
60852;BME280;48553;50.766;2.900;2023-02-15T15:29:40;101709.94;;;12.22;74.03
60852;BME280;48553;50.766;2.900;2023-02-15T15:46:34;101702.97;;;12.07;74.01
60852;BME280;48553;50.766;2.900;2023-02-15T15:49:32;101705.53;;;12.03;73.99
60852;BME280;48553;50.766;2.900;2023-02-15T15:52:35;101708.63;;;12.02;74.68
60852;BME280;48553;50.766;2.900;2023-02-15T15:55:39;101707.97;;;11.96;74.84
60852;BME280;48553;50.766;2.900;2023-02-15T15:58:46;101716.06;;;11.93;75.05
60852;BME280;48553;50.766;2.900;2023-02-15T16:01:49;101710.69;;;11.87;75.47
60852;BME280;48553;50.766;2.900;2023-02-15T16:04:50;101718.75;;;11.84;75.08
60852;BME280;48553;50.766;2.900;2023-02-15T16:07:50;101714.22;;;11.79;75.75
60852;BME280;48553;50.766;2.900;2023-02-15T16:10:50;101714.38;;;11.74;75.78
60852;BME280;48553;50.766;2.900;2023-02-15T16:13:51;101711.75;;;11.69;75.90
60852;BME280;48553;50.766;2.900;2023-02-15T16:16:56;101703.69;;;11.64;75.67
60852;BME280;48553;50.766;2.900;2023-02-15T16:20:06;101700.75;;;11.60;75.87
60852;BME280;48553;50.766;2.900;2023-02-15T16:29:50;101693.00;;;11.45;76.32
60852;BME280;48553;50.766;2.900;2023-02-15T16:33:12;101690.06;;;11.41;76.07
60852;BME280;48553;50.766;2.900;2023-02-15T16:36:21;101704.72;;;11.37;75.95
60852;BME280;48553;50.766;2.900;2023-02-15T16:39:22;101694.22;;;11.30;75.44
60852;BME280;48553;50.766;2.900;2023-02-15T16:42:23;101692.72;;;11.24;75.79
60852;BME280;48553;50.766;2.900;2023-02-15T16:45:26;101692.38;;;11.17;75.92
60852;BME280;48553;50.766;2.900;2023-02-15T16:48:26;101697.72;;;11.13;76.06
60852;BME280;48553;50.766;2.900;2023-02-15T16:51:29;101693.97;;;11.09;76.27
60852;BME280;48553;50.766;2.900;2023-02-15T16:54:31;101689.44;;;11.04;75.99
60852;BME280;48553;50.766;2.900;2023-02-15T16:57:35;101693.94;;;11.00;76.18
60852;BME280;48553;50.766;2.900;2023-02-15T17:00:38;101697.41;;;10.92;76.17
60852;BME280;48553;50.766;2.900;2023-02-15T17:03:41;101690.13;;;10.87;76.09
60852;BME280;48553;50.766;2.900;2023-02-15T17:07:01;101704.94;;;10.78;76.38
60852;BME280;48553;50.766;2.900;2023-02-15T17:10:02;101702.03;;;10.74;76.42
60852;BME280;48553;50.766;2.900;2023-02-15T17:13:16;101716.34;;;10.71;76.83
60852;BME280;48553;50.766;2.900;2023-02-15T17:16:26;101716.28;;;10.62;76.85
60852;BME280;48553;50.766;2.900;2023-02-15T17:19:30;101712.56;;;10.58;76.80
60852;BME280;48553;50.766;2.900;2023-02-15T17:22:31;101722.69;;;10.58;76.76
60852;BME280;48553;50.766;2.900;2023-02-15T17:25:39;101727.00;;;10.50;76.59
60852;BME280;48553;50.766;2.900;2023-02-15T17:28:45;101738.59;;;10.47;76.65
60852;BME280;48553;50.766;2.900;2023-02-15T17:31:51;101735.16;;;10.41;77.04
60852;BME280;48553;50.766;2.900;2023-02-15T17:38:18;101729.59;;;10.33;76.85
60852;BME280;48553;50.766;2.900;2023-02-15T17:41:18;101737.03;;;10.32;76.41
60852;BME280;48553;50.766;2.900;2023-02-15T17:44:19;101731.63;;;10.27;76.55
60852;BME280;48553;50.766;2.900;2023-02-15T17:47:22;101735.09;;;10.19;76.94
60852;BME280;48553;50.766;2.900;2023-02-15T17:50:26;101746.69;;;10.16;76.64
60852;BME280;48553;50.766;2.900;2023-02-15T17:53:27;101744.16;;;10.06;77.08
60852;BME280;48553;50.766;2.900;2023-02-15T17:56:28;101742.53;;;10.04;77.15
60852;BME280;48553;50.766;2.900;2023-02-15T17:59:28;101737.19;;;9.99;76.93
60852;BME280;48553;50.766;2.900;2023-02-15T18:02:32;101744.38;;;9.95;76.97
60852;BME280;48553;50.766;2.900;2023-02-15T18:05:52;101743.66;;;9.90;76.87
60852;BME280;48553;50.766;2.900;2023-02-15T18:09:13;101748.63;;;9.88;77.11
60852;BME280;48553;50.766;2.900;2023-02-15T18:12:35;101745.50;;;9.80;77.24
60852;BME280;48553;50.766;2.900;2023-02-15T18:15:37;101758.41;;;9.80;77.35
60852;BME280;48553;50.766;2.900;2023-02-15T18:18:37;101760.00;;;9.81;77.21
60852;BME280;48553;50.766;2.900;2023-02-15T18:21:38;101759.94;;;9.72;77.35
60852;BME280;48553;50.766;2.900;2023-02-15T18:24:38;101756.69;;;9.70;77.35
60852;BME280;48553;50.766;2.900;2023-02-15T18:27:39;101752.94;;;9.66;77.56
60852;BME280;48553;50.766;2.900;2023-02-15T18:30:40;101759.31;;;9.61;77.42
60852;BME280;48553;50.766;2.900;2023-02-15T18:33:53;101746.44;;;9.62;77.35
60852;BME280;48553;50.766;2.900;2023-02-15T18:36:58;101746.25;;;9.58;77.46
60852;BME280;48553;50.766;2.900;2023-02-15T18:40:01;101749.06;;;9.53;77.46
60852;BME280;48553;50.766;2.900;2023-02-15T18:43:03;101763.38;;;9.50;77.54
60852;BME280;48553;50.766;2.900;2023-02-15T18:46:03;101762.06;;;9.48;77.49
60852;BME280;48553;50.766;2.900;2023-02-15T18:49:04;101774.19;;;9.41;77.40
60852;BME280;48553;50.766;2.900;2023-02-15T18:52:05;101774.81;;;9.38;77.31